Lakeview, OR

4:03 PM PDT on August 28, 2016 (GMT -0700)
Lake County

Weather History for KLKV - November, 2012

Change the Weather History Date:

Friday, November 9, 2012

  Actual Average Record
Temperature  
Mean Temperature 28 °F -  
Max Temperature 33 °F 47 °F 69 °F (1941)
Min Temperature 24 °F 26 °F 10 °F (1936)
Degree Days  
Heating Degree Days 36    
Moisture  
Dew Point 24 °F    
Average Humidity 82    
Maximum Humidity 100    
Minimum Humidity 60    
Precipitation  
Precipitation 0.00 in - - ()
Sea Level Pressure  
Sea Level Pressure 29.76 in    
Wind  
Wind Speed 6 mph (South)    
Max Wind Speed 14 mph    
Max Gust Speed -    
Visibility 10 miles    
Events      
Averages and records for this station are not official NWS values.
T = Trace of Precipitation, MM = Missing Value Source: NWS Daily Summary

Daily Weather History Graph

Daily Weather History Graph

Search for Another Location

Airport or City:

Trip Planner

Search our weather history database for the weather conditions in past years. The results will help you decide how hot, cold, wet, or windy it might be!

Date:

Astronomy

Nov. 09, 2012 Rise Set
Actual Time 6:45 AM PST 4:45 PM PST
Civil Twilight 6:15 AM PST 5:14 PM PST
Nautical Twilight 5:41 AM PST 5:48 PM PST
Astronomical Twilight 5:09 AM PST 6:21 PM PST
Moon 1:44 AM PST (11/9) 2:05 PM PST (11/9)
Length of Visible Light 10h 59m
Length of Day
10h 00m
Waning Crescent, 22% of the Moon is Illuminated
Nov 9
Waning Crescent
Nov 13
New
Nov 20
First Quarter
Nov 28
Full
Dec 6
Last Quarter

Hourly Weather History & Observations

Time (PST) Temp. Windchill Dew Point Humidity Pressure Visibility Wind Dir Wind Speed Gust Speed Precip Events Conditions
12:15 AM 28.4 °F 21.2 °F 26.6 °F 93% 29.72 in 4.0 mi South 6.9 mph - N/A   Overcast
12:35 AM 26.6 °F 21.2 °F 26.6 °F 100% 29.72 in 5.0 mi SSE 4.6 mph - N/A   Overcast
12:55 AM 26.6 °F 20.0 °F 24.8 °F 93% 29.72 in 7.0 mi South 5.8 mph - N/A   Overcast
1:15 AM 26.6 °F 21.2 °F 24.8 °F 93% 29.72 in 6.0 mi SSE 4.6 mph - N/A   Overcast
1:35 AM 26.6 °F 19.1 °F 24.8 °F 93% 29.72 in 10.0 mi SSE 6.9 mph - N/A   Overcast
1:55 AM 26.6 °F 21.2 °F 24.8 °F 93% 29.73 in 10.0 mi SE 4.6 mph - N/A   Overcast
2:15 AM 28.4 °F 21.2 °F 26.6 °F 93% 29.73 in 10.0 mi SE 6.9 mph - N/A   Overcast
2:35 AM 28.4 °F 21.2 °F 26.6 °F 93% 29.74 in 10.0 mi SSE 6.9 mph - N/A   Overcast
2:55 AM 28.4 °F 20.4 °F 26.6 °F 93% 29.74 in 10.0 mi SE 8.1 mph - N/A   Overcast
3:15 AM 28.4 °F 24.6 °F 24.8 °F 86% 29.74 in 10.0 mi SE 3.5 mph - N/A   Overcast
3:55 AM 28.4 °F 22.2 °F 24.8 °F 86% 29.74 in 10.0 mi SE 5.8 mph - N/A   Overcast
4:15 AM 28.4 °F 23.3 °F 24.8 °F 86% 29.74 in 10.0 mi SSE 4.6 mph - N/A   Overcast
4:35 AM 28.4 °F - 24.8 °F 86% 29.74 in 10.0 mi Calm Calm - N/A   Overcast
4:55 AM 28.4 °F 24.6 °F 24.8 °F 86% 29.75 in 10.0 mi SE 3.5 mph - N/A   Overcast
5:15 AM 28.4 °F 23.3 °F 24.8 °F 86% 29.75 in 10.0 mi SE 4.6 mph - N/A   Overcast
5:35 AM 28.4 °F 23.3 °F 24.8 °F 86% 29.75 in 10.0 mi South 4.6 mph - N/A   Overcast
5:55 AM 26.6 °F 21.2 °F 24.8 °F 93% 29.75 in 10.0 mi SSE 4.6 mph - N/A   Overcast
6:15 AM 26.6 °F 22.6 °F 24.8 °F 93% 29.75 in 9.0 mi SSE 3.5 mph - N/A   Overcast
6:55 AM 24.8 °F 16.9 °F 21.2 °F 86% 29.76 in 10.0 mi SE 6.9 mph - N/A   Scattered Clouds
7:15 AM 26.6 °F 21.2 °F 24.8 °F 93% 29.77 in 10.0 mi SE 4.6 mph - N/A   Overcast
7:35 AM 26.6 °F 21.2 °F 24.8 °F 93% 29.77 in 10.0 mi SSE 4.6 mph - N/A   Overcast
7:55 AM 28.4 °F 22.2 °F 24.8 °F 86% 29.78 in 10.0 mi SSE 5.8 mph - N/A   Mostly Cloudy
8:15 AM 28.4 °F 23.3 °F 26.6 °F 93% 29.78 in 10.0 mi SSE 4.6 mph - N/A   Mostly Cloudy
8:35 AM 28.4 °F 22.2 °F 26.6 °F 93% 29.78 in 10.0 mi SSE 5.8 mph - N/A   Scattered Clouds
8:55 AM 30.2 °F 22.6 °F 26.6 °F 86% 29.78 in 10.0 mi SE 8.1 mph - N/A   Mostly Cloudy
9:15 AM 30.2 °F 26.7 °F 24.8 °F 80% 29.78 in 10.0 mi SSE 3.5 mph - N/A   Overcast
9:35 AM 30.2 °F 24.3 °F 26.6 °F 86% 29.78 in 10.0 mi SSE 5.8 mph - N/A   Mostly Cloudy
9:55 AM 30.2 °F 25.4 °F 24.8 °F 80% 29.79 in 10.0 mi South 4.6 mph - N/A   Overcast
10:15 AM 30.2 °F 23.4 °F 24.8 °F 80% 29.78 in 10.0 mi SW 6.9 mph - N/A   Overcast
10:35 AM 32.0 °F 24.8 °F 23.0 °F 69% 29.79 in 10.0 mi WSW 8.1 mph - N/A   Overcast
10:55 AM 32.0 °F 25.6 °F 26.6 °F 80% 29.78 in 10.0 mi WSW 6.9 mph - N/A   Overcast
11:15 AM 30.2 °F 25.4 °F 24.8 °F 80% 29.78 in 10.0 mi SSE 4.6 mph - N/A   Overcast
11:35 AM 30.2 °F 21.3 °F 24.8 °F 80% 29.78 in 10.0 mi SE 10.4 mph - N/A   Overcast
11:55 AM 30.2 °F 21.3 °F 26.6 °F 86% 29.77 in 10.0 mi SSE 10.4 mph - N/A   Overcast
12:15 PM 30.2 °F 20.2 °F 26.6 °F 86% 29.76 in 10.0 mi SSE 12.7 mph - N/A   Overcast
12:35 PM 30.2 °F 20.8 °F 26.6 °F 86% 29.76 in 10.0 mi SSE 11.5 mph - N/A   Overcast
12:55 PM 32.0 °F 23.6 °F 26.6 °F 80% 29.75 in 10.0 mi SSE 10.4 mph - N/A   Overcast
1:15 PM 32.0 °F 22.5 °F 24.8 °F 75% 29.75 in 10.0 mi SSE 12.7 mph - N/A   Overcast
1:35 PM 30.2 °F 20.8 °F 24.8 °F 80% 29.75 in 10.0 mi SSE 11.5 mph - N/A   Overcast
1:55 PM 32.0 °F 22.5 °F 24.8 °F 75% 29.75 in 10.0 mi SSE 12.7 mph - N/A   Overcast
2:15 PM 30.2 °F 21.9 °F 24.8 °F 80% 29.74 in 10.0 mi SE 9.2 mph - N/A   Overcast
2:35 PM 30.2 °F 21.9 °F 24.8 °F 80% 29.74 in 10.0 mi WSW 9.2 mph - N/A   Overcast
2:55 PM 33.8 °F 24.3 °F 21.2 °F 60% 29.75 in 10.0 mi SW 13.8 mph - N/A   Overcast
3:15 PM 32.0 °F 22.1 °F 21.2 °F 64% 29.75 in 10.0 mi SSW 13.8 mph - N/A   Overcast
3:35 PM 32.0 °F 22.5 °F 19.4 °F 60% 29.75 in 10.0 mi SW 12.7 mph - N/A   Overcast
3:55 PM 30.2 °F 19.8 °F 19.4 °F 64% 29.75 in 10.0 mi SW 13.8 mph - N/A   Overcast
4:15 PM 30.2 °F 19.8 °F 19.4 °F 64% 29.75 in 10.0 mi SW 13.8 mph - N/A   Overcast
4:35 PM 30.2 °F 20.2 °F 19.4 °F 64% 29.75 in 10.0 mi SSW 12.7 mph - N/A   Mostly Cloudy
4:55 PM 30.2 °F 22.6 °F 21.2 °F 69% 29.76 in 10.0 mi SSW 8.1 mph - N/A   Overcast
5:15 PM 28.4 °F 22.2 °F 19.4 °F 69% 29.76 in 10.0 mi SSW 5.8 mph - N/A   Mostly Cloudy
5:35 PM 28.4 °F 23.3 °F 21.2 °F 74% 29.77 in 10.0 mi South 4.6 mph - N/A   Scattered Clouds
5:55 PM 26.6 °F 21.2 °F 21.2 °F 80% 29.77 in 10.0 mi SSW 4.6 mph - N/A   Scattered Clouds
6:15 PM 26.6 °F 21.2 °F 21.2 °F 80% 29.77 in 10.0 mi SSE 4.6 mph - N/A   Overcast
6:35 PM 26.6 °F 21.2 °F 21.2 °F 80% 29.77 in 10.0 mi South 4.6 mph - N/A   Overcast
6:55 PM 26.6 °F 21.2 °F 21.2 °F 80% 29.77 in 10.0 mi South 4.6 mph - N/A   Mostly Cloudy
7:15 PM 26.6 °F 21.2 °F 21.2 °F 80% 29.77 in 10.0 mi SW 4.6 mph - N/A   Mostly Cloudy
7:35 PM 26.6 °F - 21.2 °F 80% 29.77 in 10.0 mi Calm Calm - N/A   Mostly Cloudy
7:55 PM 26.6 °F 20.0 °F 21.2 °F 80% 29.77 in 10.0 mi South 5.8 mph - N/A   Mostly Cloudy
8:15 PM 26.6 °F 21.2 °F 23.0 °F 86% 29.77 in 10.0 mi South 4.6 mph - N/A   Overcast
8:35 PM 26.6 °F 21.2 °F 23.0 °F 86% 29.78 in 10.0 mi South 4.6 mph - N/A   Overcast
8:55 PM 28.4 °F 19.7 °F 21.2 °F 74% 29.78 in 10.0 mi SW 9.2 mph - N/A   Overcast
9:15 PM 28.4 °F 19.7 °F 21.2 °F 74% 29.78 in 10.0 mi SW 9.2 mph - N/A   Overcast
9:35 PM 26.6 °F 17.5 °F 21.2 °F 80% 29.78 in 10.0 mi SSW 9.2 mph - N/A   Overcast
9:55 PM 26.6 °F 18.2 °F 21.2 °F 80% 29.78 in 10.0 mi SW 8.1 mph - N/A   Overcast
10:15 PM 26.6 °F 20.0 °F 21.2 °F 80% 29.78 in 10.0 mi SW 5.8 mph - N/A   Mostly Cloudy
10:35 PM 26.6 °F 21.2 °F 21.2 °F 80% 29.78 in 10.0 mi SW 4.6 mph - N/A   Mostly Cloudy
10:55 PM 24.8 °F 20.5 °F 21.2 °F 86% 29.78 in 10.0 mi SSW 3.5 mph - N/A   Scattered Clouds
11:15 PM 26.6 °F 20.0 °F 21.2 °F 80% 29.78 in 10.0 mi SSW 5.8 mph - N/A   Mostly Cloudy
11:35 PM 26.6 °F 21.2 °F 21.2 °F 80% 29.78 in 10.0 mi SSW 4.6 mph - N/A   Overcast
11:55 PM 26.6 °F 21.2 °F 21.2 °F 80% 29.79 in 10.0 mi South 4.6 mph - N/A   Overcast